Time;durP1;ratioP1;P1;durP2;ratioP2;P2;SDS_P1;SDS_P2;PMS_P1;PMS_P2;Temp;Humidity;BMP_temperature;BMP_pressure;BME280_temperature;BME280_humidity;BME280_pressure;Samples;Min_cycle;Max_cycle;Signal;HPM_P1;HPM_P2
2021/04/13 00:02:11;;;;;;;4.13;3.73;;;;;;;2.93;71.17;100625.70;232655;1176;115761;-63
2021/04/13 00:07:16;;;;;;;4.03;3.23;;;;;;;2.92;71.53;100645.13;233752;1175;115654;-64
2021/04/13 00:12:25;;;;;;;4.25;3.85;;;;;;;2.86;72.59;100645.77;232686;1176;115796;-65
2021/04/13 00:17:32;;;;;;;4.70;3.43;;;;;;;2.79;72.49;100639.50;233985;1174;115393;-64
2021/04/13 00:22:40;;;;;;;4.18;3.80;;;;;;;2.77;72.57;100646.73;233740;1170;115721;-65
2021/04/13 00:27:48;;;;;;;4.00;3.30;;;;;;;2.72;72.70;100654.31;233129;1176;115585;-66
2021/04/13 00:33:03;;;;;;;3.30;3.03;;;;;;;2.63;72.26;100665.80;233393;1175;115609;-68
2021/04/13 00:38:34;;;;;;;4.45;2.85;;;;;;;2.60;72.62;100666.12;235238;1176;115523;-64
2021/04/13 00:43:45;;;;;;;6.90;2.60;;;;;;;2.59;72.03;100667.10;235032;1176;115850;-64
2021/04/13 00:48:49;;;;;;;4.25;3.00;;;;;;;2.54;71.74;100659.68;235009;1176;114973;-66
2021/04/13 00:53:58;;;;;;;3.18;2.63;;;;;;;2.46;71.77;100674.61;234095;1175;115122;-63
2021/04/13 00:59:13;;;;;;;2.63;2.43;;;;;;;2.44;72.41;100689.77;233178;1174;115336;-65
2021/04/13 01:04:28;;;;;;;3.40;2.57;;;;;;;2.28;72.31;100686.07;233280;1174;116246;-65
2021/04/13 01:09:31;;;;;;;3.00;2.35;;;;;;;2.15;73.09;100680.41;233089;1175;115977;-65
2021/04/13 01:14:35;;;;;;;10.93;3.13;;;;;;;2.14;73.28;100681.39;232534;1175;196051;-66
2021/04/13 01:19:48;;;;;;;5.15;2.53;;;;;;;2.16;73.85;100679.42;233305;1174;115573;-65
2021/04/13 01:25:09;;;;;;;4.45;2.95;;;;;;;2.16;73.34;100673.34;232717;1174;116007;-66
2021/04/13 01:30:14;;;;;;;4.20;3.20;;;;;;;2.14;74.34;100665.61;232723;1174;115711;-66
2021/04/13 01:35:30;;;;;;;4.25;3.63;;;;;;;2.10;73.86;100666.10;233148;1174;115935;-65
2021/04/13 01:45:50;;;;;;;7.60;5.00;;;;;;;2.17;74.37;100660.03;232811;1176;115183;-65
2021/04/13 01:51:01;;;;;;;10.18;7.00;;;;;;;2.17;73.93;100656.58;233010;1175;115267;-64
2021/04/13 01:56:13;;;;;;;8.43;6.13;;;;;;;2.18;74.13;100672.20;232297;1170;115180;-66
2021/04/13 02:01:25;;;;;;;10.63;6.47;;;;;;;2.14;74.08;100670.87;233746;1176;115586;-67
2021/04/13 02:06:39;;;;;;;10.85;6.98;;;;;;;2.16;73.76;100668.91;233926;1174;114680;-67
2021/04/13 02:11:44;;;;;;;9.70;7.55;;;;;;;2.24;73.95;100666.32;233974;1175;115980;-67
2021/04/13 02:16:57;;;;;;;8.30;7.07;;;;;;;2.30;74.18;100660.43;233404;1176;115700;-67
2021/04/13 02:22:15;;;;;;;14.03;6.40;;;;;;;2.27;74.79;100650.22;232604;1176;116537;-67
2021/04/13 02:27:25;;;;;;;12.85;7.03;;;;;;;2.22;74.83;100659.56;232402;1176;115806;-65
2021/04/13 02:32:32;;;;;;;12.38;9.25;;;;;;;2.27;74.64;100663.38;233912;1175;115570;-65
2021/04/13 02:37:39;;;;;;;10.35;7.30;;;;;;;2.32;74.54;100670.80;233458;1175;116184;-65
2021/04/13 02:42:45;;;;;;;8.90;5.90;;;;;;;2.38;75.33;100666.71;235196;1176;118702;-65
2021/04/13 02:47:52;;;;;;;13.40;6.85;;;;;;;2.39;74.27;100676.25;233856;1168;114834;-65
2021/04/13 02:52:56;;;;;;;9.23;6.27;;;;;;;2.39;75.44;100673.63;235043;1167;114932;-65
2021/04/13 02:58:05;;;;;;;8.30;5.87;;;;;;;2.44;74.66;100681.88;234820;1175;115020;-66
2021/04/13 03:03:14;;;;;;;9.17;5.90;;;;;;;2.50;75.01;100682.03;234223;1175;114307;-66
2021/04/13 03:08:19;;;;;;;9.67;5.67;;;;;;;2.53;74.23;100691.42;233247;1174;115310;-66
2021/04/13 03:13:33;;;;;;;11.83;6.10;;;;;;;2.55;75.00;100692.09;232674;1174;115371;-65
2021/04/13 03:18:50;;;;;;;12.93;5.70;;;;;;;2.56;75.05;100685.84;233141;1176;116107;-66
2021/04/13 03:23:57;;;;;;;7.73;5.50;;;;;;;2.61;75.20;100701.98;233316;1174;116822;-65
2021/04/13 03:29:08;;;;;;;7.08;4.03;;;;;;;2.59;74.56;100696.05;232846;1175;115426;-66
2021/04/13 03:34:12;;;;;;;8.85;5.85;;;;;;;2.54;74.63;100687.81;233108;1176;115144;-66
2021/04/13 03:39:33;;;;;;;10.88;6.78;;;;;;;2.47;75.60;100697.31;232985;1174;115302;-65
2021/04/13 03:44:38;;;;;;;7.60;5.20;;;;;;;2.47;75.44;100697.31;232578;1174;116171;-66
2021/04/13 03:49:44;;;;;;;13.95;7.70;;;;;;;2.44;75.49;100702.92;232826;1175;116022;-66
2021/04/13 03:54:50;;;;;;;11.53;8.30;;;;;;;2.45;75.43;100707.17;232738;1175;116581;-65
2021/04/13 03:59:56;;;;;;;16.83;9.97;;;;;;;2.46;75.75;100701.75;233320;1176;115462;-65
2021/04/13 04:05:23;;;;;;;18.53;12.33;;;;;;;2.52;75.97;100701.13;232560;1176;115376;-66
2021/04/13 04:10:44;;;;;;;12.30;8.83;;;;;;;2.52;75.77;100706.39;233234;1175;115329;-66
2021/04/13 04:16:03;;;;;;;9.08;4.33;;;;;;;2.47;76.10;100718.37;233056;1175;115069;-65
2021/04/13 04:21:15;;;;;;;;;;;;;;;2.43;76.07;100707.36;232731;1170;114567;-65
2021/04/13 04:26:29;;;;;;;4.77;3.93;;;;;;;2.39;75.19;100713.92;234639;1174;103256;-65
2021/04/13 04:31:36;;;;;;;5.05;2.35;;;;;;;2.28;75.66;100722.08;233122;1176;115407;-66
2021/04/13 04:36:55;;;;;;;4.20;3.20;;;;;;;2.11;75.50;100713.30;234018;1174;114607;-66
2021/04/13 04:42:09;;;;;;;3.88;3.03;;;;;;;2.09;76.16;100728.41;233814;1175;116568;-65
2021/04/13 04:47:37;;;;;;;4.30;3.00;;;;;;;2.05;75.63;100734.13;234438;1174;114725;-64
2021/04/13 04:52:41;;;;;;;6.58;2.70;;;;;;;1.98;75.35;100739.99;234263;1174;114747;-65
2021/04/13 04:57:47;;;;;;;4.13;3.05;;;;;;;1.98;75.77;100736.54;233203;1174;114624;-64
2021/04/13 05:02:50;;;;;;;;;;;;;;;1.97;75.83;100748.03;233551;1174;115642;-65
2021/04/13 05:07:54;;;;;;;6.57;1.73;;;;;;;1.96;76.03;100743.75;235320;1174;103095;-65
2021/04/13 05:12:58;;;;;;;5.40;2.30;;;;;;;1.93;75.75;100749.31;233319;1174;114698;-65
2021/04/13 05:18:02;;;;;;;5.80;1.95;;;;;;;1.97;76.33;100755.92;233681;1170;115869;-65
2021/04/13 05:23:06;;;;;;;7.40;2.28;;;;;;;1.98;76.54;100768.92;233681;1174;114500;-65
2021/04/13 05:28:14;;;;;;;2.65;0.63;;;;;;;2.01;76.80;100767.79;232547;1174;115202;-64
2021/04/13 05:33:18;;;;;;;6.00;3.93;;;;;;;1.99;76.01;100772.38;233020;1174;116523;-65
2021/04/13 05:38:34;;;;;;;3.73;2.43;;;;;;;2.14;76.19;100781.34;233517;1175;116094;-64
2021/04/13 05:43:39;;;;;;;6.28;3.10;;;;;;;2.21;76.63;100786.81;232789;1174;115706;-64
2021/04/13 05:48:43;;;;;;;4.90;2.50;;;;;;;2.24;76.23;100784.70;232559;1174;115395;-65
2021/04/13 05:53:48;;;;;;;3.70;3.10;;;;;;;2.22;76.37;100793.73;232743;1174;115678;-64
2021/04/13 05:58:52;;;;;;;9.98;3.65;;;;;;;2.20;76.70;100804.40;232693;1176;116000;-64
2021/04/13 06:03:55;;;;;;;4.93;3.60;;;;;;;2.24;76.38;100810.18;232905;1174;116339;-65
2021/04/13 06:08:59;;;;;;;4.90;4.20;;;;;;;2.27;76.77;100810.70;233252;1175;115835;-64
2021/04/13 06:14:04;;;;;;;8.00;4.25;;;;;;;2.33;76.06;100815.35;232959;1174;114925;-65
2021/04/13 06:19:08;;;;;;;6.63;4.05;;;;;;;2.30;76.21;100820.09;233840;1175;115697;-65
2021/04/13 06:24:13;;;;;;;8.98;5.53;;;;;;;2.32;75.98;100813.70;234584;1174;115026;-65
2021/04/13 06:29:17;;;;;;;8.13;5.55;;;;;;;2.41;75.68;100824.28;232550;1175;115851;-64
2021/04/13 06:34:21;;;;;;;6.13;5.10;;;;;;;2.45;76.88;100828.23;234304;1175;115666;-64
2021/04/13 06:39:25;;;;;;;7.33;5.53;;;;;;;2.51;75.81;100825.80;234051;1174;115076;-65
2021/04/13 06:44:41;;;;;;;13.63;7.73;;;;;;;2.53;76.21;100823.02;235013;1174;136838;-64
2021/04/13 06:50:09;;;;;;;19.77;9.77;;;;;;;2.65;76.06;100827.88;235070;1174;114628;-65
2021/04/13 06:55:11;;;;;;;9.65;7.65;;;;;;;2.72;75.88;100828.08;234292;1174;115077;-64
2021/04/13 07:00:28;;;;;;;7.87;7.13;;;;;;;2.81;75.78;100835.01;234646;1174;114824;-65
2021/04/13 07:05:41;;;;;;;6.75;4.88;;;;;;;2.81;76.51;100837.64;234382;1174;115424;-64
2021/04/13 07:10:49;;;;;;;9.47;6.37;;;;;;;2.75;75.88;100838.30;233384;1175;115186;-65
2021/04/13 07:15:57;;;;;;;7.08;5.88;;;;;;;2.71;75.17;100839.59;233706;1175;115251;-63
2021/04/13 07:21:28;;;;;;;6.83;4.03;;;;;;;2.74;75.71;100852.44;232826;1175;114595;-65
2021/04/13 07:26:37;;;;;;;8.33;7.37;;;;;;;2.79;76.23;100844.88;232556;1174;115180;-64
2021/04/13 07:32:05;;;;;;;6.97;4.80;;;;;;;2.94;76.65;100850.39;233251;1168;115282;-65
2021/04/13 07:37:36;;;;;;;5.23;3.08;;;;;;;3.05;76.18;100852.75;232590;1174;114846;-64
2021/04/13 07:42:46;;;;;;;8.88;5.38;;;;;;;3.27;76.24;100849.52;232580;1174;114359;-65
2021/04/13 07:48:07;;;;;;;7.15;6.45;;;;;;;3.54;76.11;100856.34;233450;1174;114340;-65
2021/04/13 07:53:31;;;;;;;7.03;5.93;;;;;;;3.68;75.54;100857.50;233073;1174;115186;-64
2021/04/13 07:59:02;;;;;;;4.17;3.37;;;;;;;3.79;76.05;100864.28;233438;1174;115705;-65
2021/04/13 08:04:06;;;;;;;8.70;4.88;;;;;;;3.91;75.88;100853.27;232452;1175;115398;-66
2021/04/13 08:09:24;;;;;;;7.75;5.23;;;;;;;4.07;75.27;100852.43;232383;1175;115394;-64
2021/04/13 08:14:33;;;;;;;7.03;6.00;;;;;;;4.29;75.51;100857.02;233629;1174;115330;-64
2021/04/13 08:19:35;;;;;;;8.63;5.80;;;;;;;4.51;75.24;100844.97;232467;1171;115370;-65
2021/04/13 08:24:40;;;;;;;8.15;4.85;;;;;;;4.67;75.25;100846.73;232824;1175;115573;-65
2021/04/13 08:30:22;;;;;;;10.00;5.20;;;;;;;4.71;75.27;100840.13;233328;1175;115061;-65
2021/04/13 08:35:32;;;;;;;10.50;5.20;;;;;;;4.78;74.76;100851.66;232371;1167;114536;-65
2021/04/13 08:40:44;;;;;;;6.93;4.37;;;;;;;4.76;73.86;100851.01;234029;1175;115349;-64
2021/04/13 08:46:26;;;;;;;7.00;4.03;;;;;;;4.65;74.51;100854.83;233281;1167;116456;-65
2021/04/13 08:51:48;;;;;;;33.47;15.97;;;;;;;4.64;74.54;100849.70;234584;1174;115177;-65
2021/04/13 08:56:55;;;;;;;7.43;6.07;;;;;;;4.83;74.31;100851.98;234408;1174;116462;-65
2021/04/13 09:02:25;;;;;;;8.97;5.70;;;;;;;4.97;74.38;100861.83;235224;1174;115169;-65
2021/04/13 09:07:33;;;;;;;6.93;5.07;;;;;;;5.20;74.70;100850.52;234793;1174;116386;-65
2021/04/13 09:12:41;;;;;;;7.88;4.73;;;;;;;5.49;74.47;100842.77;233607;1174;114301;-65
2021/04/13 09:18:12;;;;;;;6.07;4.47;;;;;;;5.83;73.86;100838.88;233587;1176;114551;-64
2021/04/13 09:23:33;;;;;;;5.93;4.33;;;;;;;6.08;73.80;100830.61;234001;1175;115627;-65
2021/04/13 09:28:53;;;;;;;6.25;4.58;;;;;;;6.22;73.21;100836.92;233719;1175;116681;-66
2021/04/13 09:34:31;;;;;;;4.80;4.33;;;;;;;6.33;73.11;100833.86;232789;1174;116174;-65
2021/04/13 09:39:59;;;;;;;7.53;5.87;;;;;;;6.59;73.13;100828.13;233050;1176;115468;-64
2021/04/13 09:45:22;;;;;;;6.28;3.93;;;;;;;6.62;71.91;100835.71;233870;1174;115055;-65
2021/04/13 09:50:33;;;;;;;7.90;5.13;;;;;;;6.55;71.51;100832.13;233003;1174;115446;-65
2021/04/13 09:55:53;;;;;;;7.75;4.25;;;;;;;6.67;71.21;100840.47;232685;1174;115751;-65
2021/04/13 10:01:21;;;;;;;3.53;3.07;;;;;;;6.76;70.65;100837.52;232814;1176;115115;-65
2021/04/13 10:06:35;;;;;;;4.65;3.23;;;;;;;6.86;70.47;100833.78;232894;1172;115419;-64
2021/04/13 10:12:15;;;;;;;5.25;2.65;;;;;;;6.93;70.45;100824.92;233147;1175;115312;-65
2021/04/13 10:17:35;;;;;;;2.95;2.10;;;;;;;6.99;70.20;100821.54;232423;1174;114965;-65
2021/04/13 10:22:52;;;;;;;5.93;3.43;;;;;;;6.93;70.02;100816.97;232717;1174;115105;-66
2021/04/13 10:28:32;;;;;;;3.47;2.77;;;;;;;6.98;69.91;100809.28;233055;1175;115483;-65
2021/04/13 10:34:06;;;;;;;2.73;2.50;;;;;;;7.38;69.12;100804.42;232552;1175;115109;-65
2021/04/13 10:39:32;;;;;;;2.07;1.60;;;;;;;7.54;68.06;100806.85;233351;1175;115074;-65
2021/04/13 10:45:17;;;;;;;3.46;3.06;;;;;;;7.77;68.33;100798.70;233002;1175;115134;-66
2021/04/13 10:50:58;;;;;;;3.75;2.40;;;;;;;8.04;67.96;100789.12;234596;1174;116455;-65
2021/04/13 10:56:33;;;;;;;2.47;2.27;;;;;;;8.10;66.75;100780.39;234937;1176;116195;-66
2021/04/13 11:02:05;;;;;;;2.55;2.35;;;;;;;7.95;67.28;100774.36;235150;1177;136673;-65
2021/04/13 11:07:34;;;;;;;6.90;3.40;;;;;;;8.21;66.44;100771.90;235112;1176;115299;-66
2021/04/13 11:12:43;;;;;;;3.00;2.27;;;;;;;8.49;66.50;100765.77;234993;1174;116411;-65
2021/04/13 11:18:03;;;;;;;2.73;2.53;;;;;;;8.51;65.20;100761.08;234767;1175;115834;-65
2021/04/13 11:23:12;;;;;;;3.05;2.65;;;;;;;8.33;65.36;100765.05;232694;1174;115316;-65
2021/04/13 11:28:35;;;;;;;3.27;2.70;;;;;;;8.10;64.54;100765.27;233356;1176;115748;-67
2021/04/13 11:34:00;;;;;;;3.67;3.20;;;;;;;7.82;65.93;100767.09;232754;1167;115381;-65
2021/04/13 11:39:23;;;;;;;3.30;3.07;;;;;;;7.87;65.24;100763.88;233663;1171;115906;-65
2021/04/13 11:44:42;;;;;;;4.53;4.10;;;;;;;8.28;65.24;100761.30;233057;1175;115318;-65
2021/04/13 11:50:16;;;;;;;2.95;2.70;;;;;;;8.74;63.88;100758.94;232502;1176;116810;-65
2021/04/13 11:55:33;;;;;;;3.03;2.30;;;;;;;8.98;63.71;100760.25;233466;1172;115910;-65
2021/04/13 12:00:35;;;;;;;5.05;3.20;;;;;;;8.88;63.57;100757.95;233065;1175;115483;-65
2021/04/13 12:05:54;;;;;;;6.18;4.90;;;;;;;8.38;63.42;100756.49;232256;1175;114849;-66
2021/04/13 12:11:01;;;;;;;5.83;4.33;;;;;;;7.96;63.14;100750.25;233668;1175;115345;-66
2021/04/13 12:16:06;;;;;;;5.50;4.70;;;;;;;7.71;63.36;100749.84;233692;1176;114937;-65
2021/04/13 12:21:26;;;;;;;5.17;4.63;;;;;;;7.63;63.69;100750.00;232485;1174;115399;-66
2021/04/13 12:26:29;;;;;;;11.00;4.83;;;;;;;7.73;64.54;100745.17;233553;1170;115545;-65
2021/04/13 12:31:31;;;;;;;9.23;6.08;;;;;;;7.93;63.71;100736.56;233425;1175;116621;-68
2021/04/13 12:36:48;;;;;;;8.20;7.07;;;;;;;8.11;63.10;100728.92;232520;1174;116888;-68
2021/04/13 12:42:01;;;;;;;5.87;5.33;;;;;;;8.02;62.84;100728.23;233760;1175;116256;-64
2021/04/13 12:47:07;;;;;;;8.45;4.13;;;;;;;7.82;63.03;100724.63;233115;1175;115590;-67
2021/04/13 12:52:20;;;;;;;6.57;4.93;;;;;;;7.81;62.61;100724.81;232487;1176;115756;-68
2021/04/13 12:57:26;;;;;;;8.88;5.30;;;;;;;7.90;62.08;100718.36;233951;1174;115610;-68
2021/04/13 13:02:32;;;;;;;11.43;5.30;;;;;;;8.09;63.01;100713.17;233834;1174;115218;-65
2021/04/13 13:07:38;;;;;;;6.13;5.53;;;;;;;8.18;61.95;100705.88;234860;1174;115227;-65
2021/04/13 13:12:41;;;;;;;6.00;5.40;;;;;;;8.23;63.11;100703.47;233988;1174;116291;-65
2021/04/13 13:17:52;;;;;;;7.60;5.97;;;;;;;8.24;62.33;100697.14;234764;1174;114829;-65
2021/04/13 13:22:57;;;;;;;7.85;6.00;;;;;;;8.21;61.67;100697.53;232372;1174;116277;-68
2021/04/13 13:28:09;;;;;;;10.50;6.27;;;;;;;8.03;61.71;100694.53;233307;1174;138247;-67
2021/04/13 13:33:21;;;;;;;17.33;7.60;;;;;;;7.87;61.87;100692.20;232978;1174;115398;-69
2021/04/13 13:38:26;;;;;;;11.13;7.95;;;;;;;7.81;61.74;100680.52;232411;1175;116526;-67
2021/04/13 13:43:35;;;;;;;9.47;8.53;;;;;;;7.77;61.36;100674.77;232746;1174;116696;-69
2021/04/13 13:48:40;;;;;;;9.28;8.30;;;;;;;7.88;61.96;100672.60;232701;1174;115976;-68
2021/04/13 13:53:53;;;;;;;10.20;8.23;;;;;;;8.13;61.40;100660.50;232566;1175;115578;-66
2021/04/13 13:59:20;;;;;;;12.05;6.80;;;;;;;8.42;60.60;100654.95;233294;1176;116189;-66
2021/04/13 14:04:34;;;;;;;9.88;7.25;;;;;;;8.68;61.12;100642.77;232421;1175;116803;-67
2021/04/13 14:09:41;;;;;;;8.70;5.65;;;;;;;8.88;60.40;100627.67;232590;1174;116007;-68
2021/04/13 14:14:45;;;;;;;10.53;5.60;;;;;;;8.97;59.89;100620.33;232995;1176;116205;-65
2021/04/13 14:19:49;;;;;;;8.65;6.75;;;;;;;8.93;59.35;100619.09;232547;1176;116854;-65
2021/04/13 14:25:11;;;;;;;7.63;5.30;;;;;;;8.99;59.41;100611.13;232275;1176;116786;-66
2021/04/13 14:30:28;;;;;;;4.03;3.58;;;;;;;9.07;58.40;100610.13;232531;1175;116138;-67
2021/04/13 14:35:32;;;;;;;9.30;5.00;;;;;;;9.03;58.21;100598.25;232503;1174;115812;-67
2021/04/13 14:40:38;;;;;;;5.70;5.13;;;;;;;8.95;57.56;100603.75;232199;1174;115571;-68
2021/04/13 14:45:42;;;;;;;8.43;5.53;;;;;;;8.86;59.11;100595.17;233467;1176;116872;-68
2021/04/13 14:50:50;;;;;;;5.77;5.20;;;;;;;8.88;57.79;100603.73;232779;1176;116548;-68
2021/04/13 14:55:54;;;;;;;5.90;5.28;;;;;;;8.85;57.62;100593.54;233608;1174;136688;-69
2021/04/13 15:00:58;;;;;;;7.80;5.27;;;;;;;8.83;56.18;100594.77;233608;1174;116653;-68
2021/04/13 15:06:03;;;;;;;3.60;3.30;;;;;;;8.87;56.29;100593.30;234085;1176;115739;-66
2021/04/13 15:11:07;;;;;;;3.60;3.30;;;;;;;8.89;55.70;100588.61;234872;1175;115307;-67
2021/04/13 15:16:12;;;;;;;6.67;3.67;;;;;;;8.79;55.58;100586.37;234993;1176;115025;-66
2021/04/13 15:21:21;;;;;;;6.23;2.93;;;;;;;8.62;54.34;100582.43;235087;1174;115118;-67
2021/04/13 15:26:24;;;;;;;4.40;3.90;;;;;;;8.44;54.61;100583.02;234182;1174;114437;-67
2021/04/13 15:31:28;;;;;;;5.25;3.70;;;;;;;8.36;54.60;100591.97;233328;1174;116280;-67
2021/04/13 15:36:39;;;;;;;4.70;4.13;;;;;;;8.25;54.66;100581.91;233139;1174;115264;-66
2021/04/13 15:41:49;;;;;;;5.13;3.53;;;;;;;8.15;54.59;100575.32;234006;1174;115271;-66
2021/04/13 15:46:52;;;;;;;5.33;3.10;;;;;;;8.05;54.10;100571.19;234270;1176;115830;-67
2021/04/13 15:51:56;;;;;;;4.70;3.30;;;;;;;8.01;54.38;100564.63;233277;1177;115702;-68
2021/04/13 15:57:01;;;;;;;4.80;4.38;;;;;;;7.95;54.45;100559.31;233263;1174;115708;-68
2021/04/13 16:02:07;;;;;;;4.90;4.50;;;;;;;7.88;55.28;100538.04;232628;1175;114563;-68
2021/04/13 16:07:12;;;;;;;4.70;4.30;;;;;;;7.81;54.40;100537.19;232479;1176;114975;-67
2021/04/13 16:12:17;;;;;;;3.90;3.57;;;;;;;7.72;54.69;100522.43;232602;1170;115558;-67
2021/04/13 16:17:21;;;;;;;4.23;3.80;;;;;;;7.67;54.82;100528.33;232593;1174;115555;-70
2021/04/13 16:22:25;;;;;;;3.85;3.50;;;;;;;7.66;55.56;100518.72;232664;1174;115339;-68
2021/04/13 16:27:28;;;;;;;4.47;3.50;;;;;;;7.68;54.76;100521.18;232607;1174;115812;-68
2021/04/13 16:32:34;;;;;;;4.50;3.63;;;;;;;7.65;55.27;100513.61;232593;1174;115543;-68
2021/04/13 16:37:45;;;;;;;3.50;3.30;;;;;;;7.59;55.00;100501.98;232366;1175;115236;-69
2021/04/13 16:43:02;;;;;;;6.10;4.40;;;;;;;7.47;55.41;100498.23;232460;1176;114861;-68
2021/04/13 16:48:11;;;;;;;4.23;3.03;;;;;;;7.38;55.22;100505.52;232571;1175;114398;-70
2021/04/13 16:53:17;;;;;;;4.70;3.60;;;;;;;7.29;55.19;100524.45;232659;1174;114654;-68
2021/04/13 16:58:21;;;;;;;5.08;3.53;;;;;;;7.25;55.05;100521.36;233343;1175;115016;-70
2021/04/13 17:03:27;;;;;;;3.27;2.97;;;;;;;7.20;54.97;100528.25;233722;1175;114845;-70
2021/04/13 17:08:49;;;;;;;5.95;4.30;;;;;;;7.14;55.18;100521.06;232600;1176;114720;-70
2021/04/13 17:14:01;;;;;;;4.80;3.87;;;;;;;7.07;55.30;100519.17;232314;1175;116175;-69
2021/04/13 17:19:22;;;;;;;7.35;4.70;;;;;;;7.02;54.97;100521.61;235178;1174;115549;-66
2021/04/13 17:24:32;;;;;;;7.10;4.80;;;;;;;6.99;54.90;100527.30;234699;1176;116395;-67
2021/04/13 17:29:51;;;;;;;6.45;4.65;;;;;;;6.93;55.33;100528.05;235034;1175;114613;-68
2021/04/13 17:34:54;;;;;;;9.35;6.70;;;;;;;6.87;55.53;100542.06;234662;1175;116012;-65
2021/04/13 17:40:00;;;;;;;8.08;5.90;;;;;;;6.83;55.68;100535.50;234215;1174;114464;-66
2021/04/13 17:45:09;;;;;;;6.90;6.28;;;;;;;6.78;55.58;100543.20;233326;1174;116371;-65
2021/04/13 17:50:18;;;;;;;7.20;5.68;;;;;;;6.71;55.45;100544.99;233086;1176;115707;-68
2021/04/13 17:55:28;;;;;;;8.43;5.33;;;;;;;6.64;55.48;100544.92;232418;1174;116072;-68
2021/04/13 18:00:32;;;;;;;7.33;5.30;;;;;;;6.56;55.72;100544.22;233099;1174;115339;-64
2021/04/13 18:05:48;;;;;;;10.77;6.57;;;;;;;6.47;56.30;100548.80;232648;1176;117244;-65
2021/04/13 18:11:05;;;;;;;5.75;4.75;;;;;;;6.39;55.87;100549.77;232526;1176;115963;-63
2021/04/13 18:16:57;;;;;;;6.70;4.90;;;;;;;6.32;56.31;100548.88;233657;1174;115334;-64
2021/04/13 18:22:08;;;;;;;6.03;5.43;;;;;;;6.24;56.23;100546.33;231925;1176;116078;-63
2021/04/13 18:27:35;;;;;;;11.60;6.67;;;;;;;6.18;56.36;100541.77;233786;1170;115050;-63
2021/04/13 18:33:10;;;;;;;7.83;6.00;;;;;;;6.16;56.53;100540.31;232687;1176;116196;-64
2021/04/13 18:38:33;;;;;;;6.60;5.90;;;;;;;6.08;56.36;100549.20;233503;1175;117641;-66
2021/04/13 18:43:45;;;;;;;4.93;3.88;;;;;;;6.01;56.86;100543.01;232651;1176;116201;-66
2021/04/13 18:49:00;;;;;;;8.85;4.30;;;;;;;5.94;56.54;100550.86;232571;1176;118068;-65
2021/04/13 18:54:10;;;;;;;4.67;3.10;;;;;;;5.90;56.38;100549.58;233999;1174;115154;-66
2021/04/13 18:59:15;;;;;;;4.13;3.30;;;;;;;5.87;56.36;100535.87;232982;1173;115482;-67
2021/04/13 19:04:19;;;;;;;4.03;3.00;;;;;;;5.83;56.34;100542.53;232292;1174;115157;-66
2021/04/13 19:09:27;;;;;;;17.95;4.40;;;;;;;5.80;56.33;100548.22;234087;1174;114860;-65
2021/04/13 19:14:37;;;;;;;7.13;3.15;;;;;;;5.80;56.29;100551.69;233844;1174;114804;-67
2021/04/13 19:19:47;;;;;;;4.58;2.15;;;;;;;5.78;55.99;100548.40;233433;1174;115378;-66
2021/04/13 19:24:56;;;;;;;3.60;2.70;;;;;;;5.78;56.09;100544.93;233762;1174;114539;-66
2021/04/13 19:30:15;;;;;;;5.83;2.67;;;;;;;5.78;56.50;100536.99;235100;1174;114942;-66
2021/04/13 19:35:21;;;;;;;3.58;3.05;;;;;;;5.77;56.35;100533.53;234245;1174;115705;-65
2021/04/13 19:40:26;;;;;;;3.30;2.40;;;;;;;5.75;56.58;100523.13;235041;1174;115534;-64
2021/04/13 19:45:57;;;;;;;3.43;2.40;;;;;;;5.72;56.75;100533.25;234509;1167;116699;-64
2021/04/13 19:51:19;;;;;;;6.20;3.60;;;;;;;5.70;56.52;100538.73;234333;1175;114747;-65
2021/04/13 19:56:27;;;;;;;6.43;3.45;;;;;;;5.67;56.32;100533.80;233319;1174;115704;-64
2021/04/13 20:01:33;;;;;;;5.73;2.27;;;;;;;5.62;56.86;100541.45;232741;1175;115070;-64
2021/04/13 20:06:41;;;;;;;6.70;3.50;;;;;;;5.58;56.75;100544.64;233551;1175;115122;-68
2021/04/13 20:11:57;;;;;;;3.47;2.50;;;;;;;5.53;57.10;100544.36;233054;1174;114819;-66
2021/04/13 20:17:23;;;;;;;2.08;1.38;;;;;;;5.52;57.19;100553.30;232528;1174;115532;-64
2021/04/13 20:22:30;;;;;;;5.77;2.63;;;;;;;5.47;56.90;100550.41;233760;1174;115190;-65
2021/04/13 20:27:38;;;;;;;3.85;2.60;;;;;;;5.44;57.04;100551.59;233148;1176;114759;-64
2021/04/13 20:33:25;;;;;;;3.70;3.20;;;;;;;5.41;57.34;100546.66;232563;1174;115429;-66
2021/04/13 20:38:42;;;;;;;3.30;3.00;;;;;;;5.37;57.00;100545.38;233122;1174;114570;-66
2021/04/13 20:43:58;;;;;;;5.80;3.15;;;;;;;5.32;57.51;100548.55;232609;1174;114862;-64
2021/04/13 20:49:19;;;;;;;4.73;4.20;;;;;;;5.28;57.12;100539.34;232764;1174;114500;-67
2021/04/13 20:54:32;;;;;;;5.60;4.40;;;;;;;5.26;57.28;100543.16;232601;1174;115040;-67
2021/04/13 20:59:50;;;;;;;7.10;3.93;;;;;;;5.21;57.42;100543.70;232499;1168;115031;-66
2021/04/13 21:05:03;;;;;;;7.90;3.70;;;;;;;5.18;57.93;100533.52;233355;1174;114380;-65
2021/04/13 21:10:15;;;;;;;9.73;3.98;;;;;;;5.19;57.58;100531.69;232538;1174;115127;-66
2021/04/13 21:15:19;;;;;;;7.00;4.38;;;;;;;5.15;57.68;100522.48;232803;1176;115110;-68
2021/04/13 21:20:23;;;;;;;4.55;4.08;;;;;;;5.16;57.47;100527.59;233465;1176;115064;-67
2021/04/13 21:25:36;;;;;;;9.50;4.70;;;;;;;5.14;58.33;100519.02;234092;1176;114659;-67
2021/04/13 21:30:40;;;;;;;5.40;4.07;;;;;;;5.13;57.82;100513.91;233904;1174;114763;-68
2021/04/13 21:36:19;;;;;;;10.33;5.23;;;;;;;5.12;58.06;100510.44;235227;1174;116972;-66
2021/04/13 21:41:35;;;;;;;6.20;3.97;;;;;;;5.12;58.11;100512.27;234140;1176;116058;-68
2021/04/13 21:46:45;;;;;;;5.20;3.80;;;;;;;5.11;58.42;100519.38;235016;1175;115394;-67
2021/04/13 21:51:57;;;;;;;7.97;3.80;;;;;;;5.10;57.90;100507.16;234891;1176;115333;-67
2021/04/13 21:57:15;;;;;;;9.80;6.20;;;;;;;5.10;58.51;100508.98;234135;1174;116684;-67
2021/04/13 22:02:25;;;;;;;7.50;4.05;;;;;;;5.07;57.99;100508.34;233211;1174;117180;-66
2021/04/13 22:07:30;;;;;;;4.90;3.65;;;;;;;5.04;58.47;100508.69;232787;1175;117903;-66
2021/04/13 22:12:36;;;;;;;7.70;3.80;;;;;;;5.03;58.69;100507.05;232493;1176;115780;-69
2021/04/13 22:17:47;;;;;;;8.23;4.78;;;;;;;5.00;58.92;100510.05;233850;1176;115835;-67
2021/04/13 22:22:53;;;;;;;8.20;4.03;;;;;;;4.97;59.06;100515.69;232708;1174;115636;-69
2021/04/13 22:28:19;;;;;;;4.83;3.18;;;;;;;4.97;58.57;100509.58;232472;1176;115427;-66
2021/04/13 22:33:32;;;;;;;11.43;5.97;;;;;;;4.88;58.65;100514.14;233098;1175;115409;-66
2021/04/13 22:39:04;;;;;;;4.77;3.73;;;;;;;4.87;58.91;100506.39;232702;1175;116310;-70
2021/04/13 22:44:12;;;;;;;8.03;5.25;;;;;;;4.86;58.86;100504.75;233151;1176;116496;-67
2021/04/13 22:49:20;;;;;;;8.75;3.73;;;;;;;4.82;59.55;100509.56;232443;1174;115737;-67
2021/04/13 22:54:26;;;;;;;;;;;;;;;4.80;59.41;100506.28;232709;1174;115002;-68
2021/04/13 22:59:39;;;;;;;13.93;5.67;;;;;;;4.77;59.64;100505.81;234561;1174;103069;-67
2021/04/13 23:04:45;;;;;;;6.60;4.73;;;;;;;4.75;59.84;100498.06;232470;1175;115026;-69
2021/04/13 23:09:50;;;;;;;7.10;3.67;;;;;;;4.69;59.81;100496.13;232622;1174;114890;-68
2021/04/13 23:14:54;;;;;;;5.73;4.38;;;;;;;4.65;59.57;100492.20;234017;1174;114385;-65
2021/04/13 23:19:58;;;;;;;8.30;4.35;;;;;;;4.61;59.85;100498.83;232701;1174;114648;-68
2021/04/13 23:25:01;;;;;;;9.85;3.88;;;;;;;4.54;59.87;100490.00;233837;1176;115512;-65
2021/04/13 23:30:07;;;;;;;15.35;5.40;;;;;;;4.50;61.21;100497.45;233793;1174;114879;-69
2021/04/13 23:35:12;;;;;;;10.53;6.63;;;;;;;4.53;60.60;100486.53;233584;1176;114768;-67
2021/04/13 23:40:16;;;;;;;14.05;5.70;;;;;;;4.58;61.42;100496.57;233857;1174;114686;-66
2021/04/13 23:45:25;;;;;;;8.80;5.53;;;;;;;4.58;61.48;100494.75;235081;1174;116434;-66
2021/04/13 23:50:29;;;;;;;6.78;4.23;;;;;;;4.56;61.66;100503.84;234210;1174;115872;-65
2021/04/13 23:55:34;;;;;;;4.07;3.40;;;;;;;4.43;62.49;100503.59;234970;1176;115380;-66
